createdAt,value
2022-12-12T00:08:22.287Z,78.65
2022-12-12T00:18:22.238Z,78.69
2022-12-12T00:28:22.187Z,78.66
2022-12-12T00:38:22.198Z,78.69
2022-12-12T00:48:23.981Z,78.67
2022-12-12T00:58:24.237Z,78.69
2022-12-12T01:08:24.294Z,78.72
2022-12-12T01:18:24.311Z,78.73
2022-12-12T01:28:24.272Z,78.72
2022-12-12T01:38:24.622Z,78.76
2022-12-12T01:48:24.354Z,78.74
2022-12-12T01:58:27.228Z,78.71
2022-12-12T02:08:27.386Z,78.79
2022-12-12T02:18:28.034Z,78.86
2022-12-12T02:28:28.344Z,78.90
2022-12-12T02:38:28.480Z,78.99
2022-12-12T02:48:28.416Z,79.05
2022-12-12T02:58:28.387Z,79.03
2022-12-12T03:08:28.434Z,79.10
2022-12-12T03:18:28.521Z,79.21
2022-12-12T03:28:28.389Z,79.25
2022-12-12T03:38:28.485Z,79.35
2022-12-12T03:48:28.997Z,79.27
2022-12-12T03:58:29.444Z,79.37
2022-12-12T04:08:29.585Z,79.32
2022-12-12T04:18:29.821Z,79.37
2022-12-12T04:28:29.468Z,79.41
2022-12-12T04:38:29.485Z,79.52
2022-12-12T04:48:29.475Z,79.55
2022-12-12T04:58:30.372Z,79.60
2022-12-12T05:08:30.570Z,79.65
2022-12-12T05:18:31.005Z,79.67
2022-12-12T05:28:31.508Z,79.78
2022-12-12T05:38:31.573Z,79.87
2022-12-12T05:48:31.530Z,79.88
2022-12-12T05:58:31.704Z,79.91
2022-12-12T06:08:31.642Z,79.99
2022-12-12T06:18:31.573Z,79.96
2022-12-12T06:28:31.687Z,80.00
2022-12-12T06:38:31.586Z,80.10
2022-12-12T06:48:31.598Z,80.20
2022-12-12T06:58:31.627Z,80.22
2022-12-12T07:08:31.747Z,80.29
2022-12-12T07:18:31.685Z,80.28
2022-12-12T07:28:31.852Z,80.31
2022-12-12T07:38:31.817Z,80.39
2022-12-12T07:48:31.652Z,80.43
2022-12-12T07:58:31.667Z,80.40
2022-12-12T08:08:31.771Z,80.46
2022-12-12T08:18:31.706Z,80.45
2022-12-12T08:28:31.817Z,80.32
2022-12-12T08:38:31.734Z,80.14
2022-12-12T08:48:32.629Z,79.93
2022-12-12T08:58:32.841Z,79.74
2022-12-12T09:08:32.829Z,78.26
2022-12-12T09:18:35.869Z,76.66
2022-12-12T09:28:35.773Z,77.94
2022-12-12T09:38:35.852Z,77.89
2022-12-12T09:48:36.117Z,77.67
2022-12-12T09:58:35.876Z,74.90
2022-12-12T10:08:35.852Z,71.61
2022-12-12T10:18:35.981Z,74.04
2022-12-12T10:28:35.863Z,72.95
2022-12-12T10:38:35.873Z,73.75
2022-12-12T10:48:35.928Z,73.57
2022-12-12T10:58:37.081Z,73.05
2022-12-12T11:08:37.012Z,74.79
2022-12-12T11:18:36.956Z,74.79
2022-12-12T11:28:36.951Z,74.79
2022-12-12T11:38:36.983Z,74.84
2022-12-12T11:48:37.015Z,74.82
2022-12-12T11:58:36.966Z,74.89
2022-12-12T12:08:38.868Z,75.01
2022-12-12T12:18:39.024Z,74.99
2022-12-12T12:28:39.007Z,74.87
2022-12-12T12:38:39.022Z,74.81
2022-12-12T12:48:38.500Z,73.99
2022-12-12T12:58:39.185Z,74.08
2022-12-12T13:08:39.410Z,74.18
2022-12-12T13:18:46.525Z,74.15
2022-12-12T13:28:41.074Z,74.26
2022-12-12T13:38:41.452Z,74.38
2022-12-12T13:48:46.209Z,74.32
2022-12-12T13:58:43.139Z,74.36
2022-12-12T14:08:43.214Z,74.47
2022-12-12T14:18:43.142Z,74.50
2022-12-12T14:28:43.214Z,74.52
2022-12-12T14:38:43.127Z,74.64
2022-12-12T14:48:43.465Z,74.82
2022-12-12T14:58:43.734Z,75.06
2022-12-12T15:08:44.327Z,75.39
2022-12-12T15:18:44.261Z,75.79
2022-12-12T15:28:44.230Z,76.19
2022-12-12T15:38:44.222Z,76.57
2022-12-12T15:48:44.219Z,76.85
2022-12-12T15:58:44.358Z,77.18
2022-12-12T16:08:44.323Z,77.46
2022-12-12T16:18:44.456Z,77.69
2022-12-12T16:28:44.371Z,77.95
2022-12-12T16:38:44.433Z,78.22
2022-12-12T16:48:44.391Z,78.44
2022-12-12T16:58:44.417Z,78.68
2022-12-12T17:08:44.400Z,78.87
2022-12-12T17:18:44.496Z,79.15
2022-12-12T17:28:44.485Z,79.25
2022-12-12T17:38:44.710Z,79.44
2022-12-12T17:48:45.546Z,79.59
2022-12-12T17:58:45.409Z,79.76
2022-12-12T18:08:45.451Z,79.95
2022-12-12T18:18:45.422Z,80.11
2022-12-12T18:28:45.391Z,80.31
2022-12-12T18:38:47.783Z,80.45
2022-12-12T18:48:50.560Z,80.55
2022-12-12T18:58:50.524Z,80.72
2022-12-12T19:08:50.758Z,80.83
2022-12-12T19:18:50.547Z,80.91
2022-12-12T19:28:50.508Z,81.00
2022-12-12T19:38:50.483Z,81.14
2022-12-12T19:48:50.564Z,81.26
2022-12-12T19:58:50.482Z,81.35
2022-12-12T20:08:51.785Z,81.46
2022-12-12T20:18:51.578Z,81.56
2022-12-12T20:28:51.564Z,81.68
2022-12-12T20:38:51.684Z,81.78
2022-12-12T20:48:53.659Z,81.85
2022-12-12T20:58:53.687Z,81.92
2022-12-12T21:08:53.740Z,82.04
2022-12-12T21:18:53.672Z,82.12
2022-12-12T21:28:53.656Z,82.09
2022-12-12T21:38:53.875Z,82.21
2022-12-12T21:49:13.279Z,82.27
2022-12-12T21:59:13.628Z,82.33
2022-12-12T22:09:13.635Z,82.44
2022-12-12T22:19:13.657Z,82.44
2022-12-12T22:29:13.733Z,82.54
2022-12-12T22:39:14.052Z,82.67
2022-12-12T22:49:14.691Z,82.68
2022-12-12T22:59:14.841Z,82.73
2022-12-12T23:09:15.116Z,82.65
2022-12-12T23:19:15.651Z,82.73
2022-12-12T23:29:16.491Z,82.71
2022-12-12T23:39:17.371Z,82.68
2022-12-12T23:49:17.778Z,82.80
2022-12-12T23:59:18.508Z,82.75
